Terminal Aerodrome Forecast
Issued by NWS Hastings, NE

Home | Current Version | Previous Version | Text Only | Print | Product List | Glossary On
Versions: 1 2 3 4 5 6 7 8 9 10 11 12 13 14 15 16
000
FTUS43 KGID 232135 AAA
TAFGRI
TAF AMD
KGRI 232135Z 2322/2418 16020G27KT P6SM BKN150
      TEMPO 2322/2324 -TSRA BKN060CB
     FM240400 33025G30KT P6SM VCTS BKN050CB OVC100
     FM240800 33023G28KT P6SM SCT060=

USA.gov is the U.S. government's official web portal to all federal, state and local government web resources and services.